Time;durP1;ratioP1;P1;durP2;ratioP2;P2;SDS_P1;SDS_P2;PMS_P1;PMS_P2;Temp;Humidity;BMP_temperature;BMP_pressure;BME280_temperature;BME280_humidity;BME280_pressure;Samples;Min_cycle;Max_cycle;Signal;HPM_P1;HPM_P2
2021/11/26 00:02:27;;;;;;;17.10;12.25;;;23.00;33.10;;;;;;5040400;28;20149;-64
2021/11/26 00:04:55;;;;;;;17.30;12.50;;;23.00;33.10;;;;;;5066028;28;21029;-63
2021/11/26 00:07:22;;;;;;;17.25;12.90;;;23.00;33.10;;;;;;5065427;28;20051;-63
2021/11/26 00:09:51;;;;;;;15.05;12.05;;;23.00;33.10;;;;;;5064773;28;20083;-63
2021/11/26 00:12:19;;;;;;;16.25;12.38;;;23.00;33.10;;;;;;5047695;28;20171;-63
2021/11/26 00:14:53;;;;;;;18.05;13.45;;;22.90;33.00;;;;;;5065428;28;20151;-63
2021/11/26 00:17:21;;;;;;;15.40;11.68;;;23.00;33.10;;;;;;5051049;28;20102;-63
2021/11/26 00:19:49;;;;;;;14.43;11.50;;;22.90;33.00;;;;;;5044724;28;20087;-63
2021/11/26 00:22:16;;;;;;;16.75;11.95;;;22.90;33.00;;;;;;5034565;28;20091;-63
2021/11/26 00:24:44;;;;;;;14.05;11.40;;;22.90;33.10;;;;;;5045469;28;20052;-63
2021/11/26 00:27:11;;;;;;;17.88;12.68;;;22.90;33.10;;;;;;5044397;28;20151;-63
2021/11/26 00:29:39;;;;;;;15.68;11.63;;;22.90;33.10;;;;;;5044316;28;20056;-63
2021/11/26 00:32:07;;;;;;;15.52;11.27;;;22.90;33.10;;;;;;5041224;28;20504;-63
2021/11/26 00:34:34;;;;;;;17.20;12.38;;;22.90;33.10;;;;;;5044234;28;20084;-63
2021/11/26 00:37:02;;;;;;;17.23;12.40;;;22.90;33.10;;;;;;5027180;28;20103;-63
2021/11/26 00:39:29;;;;;;;16.98;12.82;;;22.90;33.10;;;;;;5042700;28;20049;-63
2021/11/26 00:41:56;;;;;;;18.52;12.52;;;22.90;33.10;;;;;;5044750;28;20142;-63
2021/11/26 00:44:23;;;;;;;16.23;12.48;;;22.90;33.10;;;;;;5042057;28;20413;-63
2021/11/26 00:46:51;;;;;;;17.85;12.52;;;22.90;33.10;;;;;;5043074;28;20502;-63
2021/11/26 00:49:18;;;;;;;17.55;12.63;;;22.90;33.10;;;;;;5044145;28;20405;-63
2021/11/26 00:51:45;;;;;;;17.05;12.55;;;22.90;33.10;;;;;;5044548;28;20086;-63
2021/11/26 00:54:12;;;;;;;16.15;11.40;;;22.90;33.10;;;;;;5058008;28;20083;-63
2021/11/26 00:56:39;;;;;;;14.88;11.80;;;22.90;33.20;;;;;;5064110;28;20124;-62
2021/11/26 00:59:06;;;;;;;15.90;11.77;;;22.90;33.10;;;;;;5064571;28;21098;-62
2021/11/26 01:01:34;;;;;;;16.67;12.52;;;22.80;33.10;;;;;;5059083;28;20083;-62
2021/11/26 01:04:01;;;;;;;17.85;12.52;;;22.80;33.10;;;;;;5062322;28;20583;-62
2021/11/26 01:06:28;;;;;;;15.35;11.90;;;22.80;33.10;;;;;;5063711;28;20048;-62
2021/11/26 01:08:56;;;;;;;18.20;13.65;;;22.80;33.10;;;;;;5065360;28;20047;-62
2021/11/26 01:11:24;;;;;;;16.70;12.32;;;22.80;33.10;;;;;;5061039;28;20455;-62
2021/11/26 01:13:52;;;;;;;16.13;12.57;;;22.80;33.10;;;;;;5061889;28;20142;-63
2021/11/26 01:16:19;;;;;;;16.13;12.20;;;22.80;33.10;;;;;;5058510;28;20048;-62
2021/11/26 01:18:46;;;;;;;14.18;11.38;;;22.80;33.10;;;;;;5045108;28;20048;-62
2021/11/26 01:21:13;;;;;;;17.60;11.95;;;22.80;33.70;;;;;;5040244;28;20102;-62
2021/11/26 01:23:41;;;;;;;17.63;12.15;;;22.80;33.10;;;;;;5052431;28;20047;-62
2021/11/26 01:26:08;;;;;;;17.92;12.13;;;22.80;33.10;;;;;;5063744;28;20114;-62
2021/11/26 01:28:35;;;;;;;16.98;12.02;;;22.80;33.20;;;;;;5064271;28;20497;-62
2021/11/26 01:31:03;;;;;;;15.52;12.07;;;22.80;33.20;;;;;;5055548;28;20101;-62
2021/11/26 01:33:31;;;;;;;17.85;12.75;;;22.80;33.10;;;;;;5056439;28;20492;-62
2021/11/26 01:35:58;;;;;;;18.98;13.05;;;22.80;33.10;;;;;;5070881;28;20562;-62
2021/11/26 01:38:26;;;;;;;16.33;12.43;;;22.80;33.10;;;;;;5063116;28;20101;-62
2021/11/26 01:40:53;;;;;;;14.93;11.30;;;22.80;33.10;;;;;;5060816;28;20137;-63
2021/11/26 01:43:21;;;;;;;17.73;13.02;;;22.80;33.10;;;;;;5054567;28;20105;-62
2021/11/26 01:45:53;;;;;;;16.10;12.00;;;22.80;33.10;;;;;;5063323;28;20427;-62
2021/11/26 01:48:22;;;;;;;15.20;11.43;;;22.80;33.20;;;;;;5062957;28;20453;-62
2021/11/26 01:50:54;;;;;;;14.32;11.50;;;22.90;33.20;;;;;;5062291;28;20080;-62
2021/11/26 01:53:22;;;;;;;16.42;12.00;;;22.90;33.20;;;;;;5049192;28;20079;-62
2021/11/26 01:55:49;;;;;;;16.85;12.35;;;22.80;33.10;;;;;;5063189;28;20140;-62
2021/11/26 01:58:16;;;;;;;17.85;12.13;;;22.80;33.10;;;;;;5064708;28;20471;-63
2021/11/26 02:00:46;;;;;;;14.73;11.63;;;22.80;33.10;;;;;;5063030;28;20139;-62
2021/11/26 02:03:13;;;;;;;15.63;11.80;;;22.80;33.10;;;;;;5048267;28;20059;-63
2021/11/26 02:05:41;;;;;;;16.00;11.52;;;22.80;33.10;;;;;;5063503;28;20052;-63
2021/11/26 02:08:10;;;;;;;14.63;11.15;;;22.80;33.10;;;;;;5063857;28;20451;-62
2021/11/26 02:10:38;;;;;;;15.20;11.95;;;22.80;33.10;;;;;;5063563;28;20052;-63
2021/11/26 02:13:06;;;;;;;15.70;12.10;;;22.80;33.10;;;;;;5039663;28;21009;-62
2021/11/26 02:15:40;;;;;;;17.45;12.23;;;22.80;33.10;;;;;;5046772;28;20587;-62
2021/11/26 02:18:08;;;;;;;18.35;12.13;;;22.80;33.10;;;;;;5027454;28;20067;-62
2021/11/26 02:20:36;;;;;;;16.30;11.38;;;22.80;33.10;;;;;;5028051;28;20102;-62
2021/11/26 02:23:03;;;;;;;14.38;10.85;;;22.80;33.10;;;;;;5042988;28;20078;-62
2021/11/26 02:25:31;;;;;;;14.38;11.38;;;22.80;33.10;;;;;;5047258;28;20110;-62
2021/11/26 02:28:01;;;;;;;17.33;12.13;;;22.80;33.10;;;;;;5047031;28;20560;-63
2021/11/26 02:30:29;;;;;;;19.85;12.18;;;22.80;33.10;;;;;;5046542;28;20052;-62
2021/11/26 02:33:04;;;;;;;17.23;11.93;;;22.80;33.10;;;;;;5050058;28;20059;-62
2021/11/26 02:35:33;;;;;;;13.85;10.77;;;22.80;33.10;;;;;;5047244;28;20118;-62
2021/11/26 02:38:01;;;;;;;15.65;11.43;;;22.80;33.20;;;;;;5048034;28;20080;-62
2021/11/26 02:40:31;;;;;;;15.90;11.70;;;22.80;33.20;;;;;;5045297;28;20136;-62
2021/11/26 02:42:59;;;;;;;14.70;11.10;;;22.70;33.10;;;;;;5056573;28;20056;-63
2021/11/26 02:45:27;;;;;;;14.07;11.25;;;22.80;33.20;;;;;;5066318;28;20135;-63
2021/11/26 02:47:55;;;;;;;15.48;11.18;;;22.70;33.10;;;;;;5066486;28;20044;-62
2021/11/26 02:50:24;;;;;;;13.75;11.20;;;22.70;33.20;;;;;;5065872;28;20083;-62
2021/11/26 02:52:53;;;;;;;15.38;11.02;;;22.70;33.10;;;;;;5047491;28;20052;-63
2021/11/26 02:55:25;;;;;;;14.35;11.45;;;22.70;33.10;;;;;;5067254;28;20055;-62
2021/11/26 02:57:53;;;;;;;15.05;11.48;;;22.70;33.30;;;;;;5066324;28;20081;-62
2021/11/26 03:00:24;;;;;;;14.85;11.82;;;22.70;33.10;;;;;;5066895;28;20072;-63
2021/11/26 03:02:53;;;;;;;13.68;11.18;;;22.70;33.20;;;;;;5046743;28;20088;-62
2021/11/26 03:05:21;;;;;;;14.82;10.80;;;22.70;33.10;;;;;;5044758;28;20068;-63
2021/11/26 03:07:49;;;;;;;13.68;10.50;;;22.70;33.10;;;;;;5046075;28;20044;-63
2021/11/26 03:10:18;;;;;;;14.30;10.60;;;22.70;33.20;;;;;;5045176;28;20434;-62
2021/11/26 03:12:53;;;;;;;14.15;10.55;;;22.70;33.10;;;;;;5038804;28;20516;-62
2021/11/26 03:15:21;;;;;;;13.70;10.75;;;22.70;33.20;;;;;;5044612;28;20131;-62
2021/11/26 03:17:50;;;;;;;14.63;11.10;;;22.70;33.20;;;;;;5045912;28;20435;-63
2021/11/26 03:20:18;;;;;;;14.57;10.85;;;22.70;33.20;;;;;;5044763;28;20506;-62
2021/11/26 03:22:45;;;;;;;14.23;10.75;;;22.70;33.20;;;;;;5048276;28;20051;-63
2021/11/26 03:25:13;;;;;;;14.70;11.00;;;22.80;33.20;;;;;;5057063;28;20136;-62
2021/11/26 03:27:41;;;;;;;14.32;10.40;;;22.80;33.20;;;;;;5045842;28;20084;-63
2021/11/26 03:30:10;;;;;;;14.43;10.60;;;22.70;33.20;;;;;;5046454;28;20049;-62
2021/11/26 03:32:38;;;;;;;15.02;11.45;;;22.80;33.20;;;;;;5042817;28;20088;-62
2021/11/26 03:35:06;;;;;;;15.05;10.85;;;22.80;33.20;;;;;;5044014;28;20048;-62
2021/11/26 03:37:34;;;;;;;14.15;10.15;;;22.80;33.20;;;;;;5045365;28;20560;-63
2021/11/26 03:40:05;;;;;;;13.95;10.38;;;22.80;33.10;;;;;;5045749;28;20505;-62
2021/11/26 03:42:32;;;;;;;14.25;10.68;;;22.80;33.10;;;;;;5046190;28;20505;-62
2021/11/26 03:45:00;;;;;;;12.82;10.25;;;22.80;33.10;;;;;;5065840;28;20409;-62
2021/11/26 03:47:27;;;;;;;13.63;10.48;;;22.80;33.10;;;;;;5065678;28;20043;-62
2021/11/26 03:49:54;;;;;;;16.35;11.60;;;22.80;33.10;;;;;;5065541;28;20098;-62
2021/11/26 03:52:21;;;;;;;12.90;10.60;;;22.80;33.10;;;;;;5054337;28;20097;-62
2021/11/26 03:54:49;;;;;;;13.48;10.57;;;22.80;33.10;;;;;;5045440;28;20084;-63
2021/11/26 03:57:16;;;;;;;16.33;10.93;;;22.80;33.10;;;;;;5045053;28;20465;-62
2021/11/26 03:59:43;;;;;;;14.25;10.50;;;22.80;33.10;;;;;;5046162;28;20052;-62
2021/11/26 04:02:11;;;;;;;13.70;10.63;;;22.70;33.10;;;;;;5036849;28;20148;-63
2021/11/26 04:04:39;;;;;;;13.90;10.55;;;22.70;33.10;;;;;;5063502;28;20520;-62
2021/11/26 04:07:06;;;;;;;13.85;10.73;;;22.70;33.10;;;;;;5064160;28;20048;-62
2021/11/26 04:09:33;;;;;;;13.80;10.52;;;22.70;33.10;;;;;;5065427;28;20055;-62
2021/11/26 04:12:01;;;;;;;14.50;10.05;;;22.70;33.10;;;;;;5048976;28;20267;-62
2021/11/26 04:14:39;;;;;;;14.52;10.75;;;22.70;33.20;;;;;;5044970;28;20065;-63
2021/11/26 04:17:10;;;;;;;12.77;9.70;;;22.70;33.20;;;;;;5044601;28;20142;-62
2021/11/26 04:19:38;;;;;;;12.75;9.82;;;22.70;33.10;;;;;;5034267;28;20149;-62
2021/11/26 04:22:06;;;;;;;15.32;9.93;;;22.70;33.20;;;;;;5038100;28;20147;-62
2021/11/26 04:24:33;;;;;;;13.88;10.15;;;22.70;33.20;;;;;;5063918;28;20664;-62
2021/11/26 04:27:01;;;;;;;12.38;9.93;;;22.70;33.20;;;;;;5064766;28;20059;-62
2021/11/26 04:29:29;;;;;;;12.18;9.70;;;22.70;33.20;;;;;;5064590;28;20125;-62
2021/11/26 04:31:58;;;;;;;13.40;9.98;;;22.70;33.20;;;;;;5037709;28;20052;-62
2021/11/26 04:34:25;;;;;;;13.65;10.82;;;22.70;33.20;;;;;;5052806;28;20508;-63
2021/11/26 04:36:53;;;;;;;11.73;9.45;;;22.70;33.20;;;;;;5028381;28;20053;-63
2021/11/26 04:39:20;;;;;;;13.32;10.00;;;22.60;33.20;;;;;;5028195;28;20723;-62
2021/11/26 04:41:47;;;;;;;13.50;10.35;;;22.70;33.20;;;;;;5025624;28;20052;-62
2021/11/26 04:44:14;;;;;;;14.80;10.20;;;22.70;33.20;;;;;;5034280;28;20131;-62
2021/11/26 04:46:41;;;;;;;12.73;9.70;;;22.70;33.20;;;;;;5034146;28;20106;-61
2021/11/26 04:49:08;;;;;;;12.07;9.85;;;22.70;33.20;;;;;;5040384;28;20509;-62
2021/11/26 04:51:37;;;;;;;13.07;9.98;;;22.70;33.20;;;;;;5045698;28;20083;-62
2021/11/26 04:54:04;;;;;;;13.35;9.68;;;22.70;33.30;;;;;;5038558;28;20110;-62
2021/11/26 04:56:32;;;;;;;12.75;9.85;;;22.70;33.30;;;;;;5024154;28;20080;-62
2021/11/26 04:58:59;;;;;;;13.25;10.05;;;22.70;33.30;;;;;;5028213;28;20140;-63
2021/11/26 05:01:27;;;;;;;12.02;9.40;;;22.70;33.20;;;;;;5029307;28;20109;-62
2021/11/26 05:03:55;;;;;;;12.50;9.75;;;22.70;33.30;;;;;;5031096;28;20053;-62
2021/11/26 05:06:22;;;;;;;11.85;8.77;;;22.70;33.80;;;;;;5034872;28;20056;-63
2021/11/26 05:08:49;;;;;;;14.23;10.30;;;22.70;33.30;;;;;;5034938;28;20700;-62
2021/11/26 05:11:16;;;;;;;12.20;9.48;;;22.70;33.30;;;;;;5033445;28;20097;-62
2021/11/26 05:13:44;;;;;;;12.10;9.40;;;22.70;33.30;;;;;;5031901;28;20061;-62
2021/11/26 05:16:13;;;;;;;11.80;9.20;;;22.70;33.30;;;;;;5034502;28;20133;-62
2021/11/26 05:18:43;;;;;;;12.43;9.68;;;22.70;33.20;;;;;;5050615;28;20041;-63
2021/11/26 05:21:12;;;;;;;13.35;9.85;;;22.70;33.30;;;;;;5029087;28;20048;-62
2021/11/26 05:23:39;;;;;;;11.25;9.23;;;22.70;33.20;;;;;;5052875;28;20051;-62
2021/11/26 05:26:07;;;;;;;12.65;9.55;;;22.70;33.20;;;;;;5064155;28;20481;-62
2021/11/26 05:28:35;;;;;;;13.60;9.95;;;22.70;33.20;;;;;;5064798;28;20670;-61
2021/11/26 05:31:02;;;;;;;12.68;9.77;;;22.70;33.20;;;;;;5043516;28;20045;-62
2021/11/26 05:33:29;;;;;;;11.57;8.82;;;22.70;33.20;;;;;;5037486;28;20617;-62
2021/11/26 05:35:57;;;;;;;10.75;9.05;;;22.70;33.20;;;;;;5043286;28;20143;-62
2021/11/26 05:38:24;;;;;;;10.70;7.90;;;22.70;33.20;;;;;;5043521;28;20158;-62
2021/11/26 05:40:52;;;;;;;12.68;9.35;;;22.70;33.10;;;;;;5041956;28;20048;-63
2021/11/26 05:43:20;;;;;;;11.60;9.20;;;22.70;33.10;;;;;;5045802;28;20251;-62
2021/11/26 05:45:47;;;;;;;11.82;9.70;;;22.70;33.20;;;;;;5046141;28;20078;-62
2021/11/26 05:48:14;;;;;;;13.02;9.40;;;22.70;33.20;;;;;;5042666;28;20053;-62
2021/11/26 05:50:41;;;;;;;11.90;9.40;;;22.70;33.20;;;;;;5037185;28;20076;-62
2021/11/26 05:53:08;;;;;;;12.80;10.00;;;22.70;33.20;;;;;;5035280;28;20080;-62
2021/11/26 05:55:36;;;;;;;11.23;9.55;;;22.70;33.20;;;;;;5038114;28;20072;-62
2021/11/26 05:58:04;;;;;;;11.77;9.43;;;22.70;33.20;;;;;;5030645;28;20048;-62
2021/11/26 06:00:32;;;;;;;12.15;9.00;;;22.70;33.20;;;;;;5035301;28;20674;-63
2021/11/26 06:03:01;;;;;;;11.32;9.18;;;22.60;33.20;;;;;;5036213;28;20939;-65
2021/11/26 06:05:28;;;;;;;11.45;9.13;;;22.70;33.20;;;;;;5042673;28;20374;-63
2021/11/26 06:07:56;;;;;;;11.10;8.73;;;22.60;33.10;;;;;;5030250;28;20494;-63
2021/11/26 06:10:27;;;;;;;11.25;8.55;;;22.60;33.10;;;;;;5042180;28;20472;-63
2021/11/26 06:12:54;;;;;;;10.88;8.73;;;22.60;33.10;;;;;;5038583;28;20398;-63
2021/11/26 06:15:23;;;;;;;11.60;8.85;;;22.60;33.10;;;;;;5027086;28;20077;-64
2021/11/26 06:17:50;;;;;;;10.00;8.35;;;22.60;33.10;;;;;;5030893;28;20122;-63
2021/11/26 06:20:20;;;;;;;11.48;8.57;;;22.60;33.00;;;;;;5028081;28;20547;-63
2021/11/26 06:22:47;;;;;;;12.10;9.43;;;22.70;33.10;;;;;;5034506;28;20049;-63
2021/11/26 06:25:17;;;;;;;12.25;9.27;;;22.70;33.00;;;;;;5029229;28;20053;-63
2021/11/26 06:27:45;;;;;;;13.60;9.53;;;22.70;33.00;;;;;;5023009;28;20445;-63
2021/11/26 06:30:15;;;;;;;12.15;9.70;;;22.70;32.90;;;;;;5029728;28;20053;-63
2021/11/26 06:32:43;;;;;;;;;;;22.80;32.90;;;;;;5023510;28;20044;-63
2021/11/26 06:35:13;;;;;;;11.32;9.00;;;22.80;32.80;;;;;;5027000;28;19967;-63
2021/11/26 06:37:41;;;;;;;11.70;9.18;;;22.90;32.70;;;;;;5028055;28;20139;-63
2021/11/26 06:40:10;;;;;;;12.05;9.55;;;22.90;32.60;;;;;;5026306;28;20136;-63
2021/11/26 06:42:38;;;;;;;11.98;9.40;;;23.00;32.60;;;;;;5016258;28;20178;-63
2021/11/26 06:45:06;;;;;;;10.48;8.73;;;23.00;32.60;;;;;;5028273;28;21975;-63
2021/11/26 06:47:34;;;;;;;12.75;10.00;;;23.10;32.50;;;;;;5031431;28;20057;-63
2021/11/26 06:50:01;;;;;;;13.13;9.93;;;23.20;32.50;;;;;;5030847;28;20044;-63
2021/11/26 06:52:29;;;;;;;12.18;9.43;;;23.20;32.40;;;;;;5020949;28;20460;-62
2021/11/26 06:54:56;;;;;;;13.18;9.77;;;23.20;32.30;;;;;;5024661;28;20057;-62
2021/11/26 06:57:23;;;;;;;13.23;9.25;;;23.30;32.30;;;;;;5028240;28;20549;-62
2021/11/26 06:59:51;;;;;;;13.13;9.57;;;23.40;32.20;;;;;;5028680;28;20044;-62
2021/11/26 07:02:18;;;;;;;12.93;9.73;;;23.40;32.10;;;;;;5019179;28;20454;-63
2021/11/26 07:04:46;;;;;;;13.88;9.93;;;23.50;32.00;;;;;;5026447;28;20045;-61
2021/11/26 07:07:14;;;;;;;12.95;10.05;;;23.50;31.90;;;;;;5030321;28;20497;-62
2021/11/26 07:09:42;;;;;;;13.07;9.80;;;23.60;32.00;;;;;;5027173;28;20136;-63
2021/11/26 07:12:10;;;;;;;13.85;9.82;;;23.70;32.60;;;;;;5021031;28;20088;-64
2021/11/26 07:14:42;;;;;;;16.60;9.82;;;23.70;32.90;;;;;;5028144;28;20140;-63
2021/11/26 07:17:10;;;;;;;14.63;9.52;;;23.80;32.90;;;;;;5030645;28;20044;-63
2021/11/26 07:19:39;;;;;;;13.60;9.85;;;23.80;32.90;;;;;;5028706;28;20493;-63
2021/11/26 07:22:07;;;;;;;11.85;9.35;;;23.90;32.60;;;;;;5022489;28;20045;-61
2021/11/26 07:24:34;;;;;;;14.63;9.13;;;24.00;32.60;;;;;;5024982;28;20049;-63
2021/11/26 07:27:02;;;;;;;13.13;9.70;;;24.10;32.60;;;;;;5032549;28;20053;-63
2021/11/26 07:29:30;;;;;;;13.40;8.77;;;24.10;32.60;;;;;;5026367;28;20048;-65
2021/11/26 07:31:58;;;;;;;10.32;8.73;;;24.20;32.40;;;;;;5024674;28;20052;-63
2021/11/26 07:34:25;;;;;;;11.95;9.68;;;24.30;32.60;;;;;;5024903;28;20100;-63
2021/11/26 07:36:54;;;;;;;12.43;9.27;;;24.30;32.30;;;;;;5031476;28;20138;-63
2021/11/26 07:39:23;;;;;;;10.70;9.25;;;24.40;32.40;;;;;;5027138;28;20380;-62
2021/11/26 07:41:52;;;;;;;12.45;8.95;;;24.50;32.50;;;;;;5022485;28;20075;-63
2021/11/26 07:44:19;;;;;;;11.35;8.68;;;24.50;32.40;;;;;;5026291;28;20407;-62
2021/11/26 07:46:47;;;;;;;12.18;8.70;;;24.50;32.40;;;;;;5027039;28;20122;-61
2021/11/26 07:49:14;;;;;;;11.00;8.57;;;24.60;32.20;;;;;;5019335;28;20466;-62
2021/11/26 07:51:41;;;;;;;9.98;8.45;;;24.60;31.90;;;;;;5022795;28;20052;-62
2021/11/26 07:54:08;;;;;;;10.63;8.23;;;24.70;31.80;;;;;;5025035;28;20103;-63
2021/11/26 07:56:35;;;;;;;9.88;8.75;;;24.70;31.90;;;;;;5031056;28;20469;-63
2021/11/26 07:59:03;;;;;;;10.23;8.05;;;24.80;32.10;;;;;;5029343;28;20140;-63
2021/11/26 08:01:30;;;;;;;9.05;8.02;;;24.80;32.20;;;;;;5022844;28;20129;-63
2021/11/26 08:03:58;;;;;;;9.35;8.18;;;24.80;32.20;;;;;;5025030;28;20112;-62
2021/11/26 08:06:25;;;;;;;12.25;8.45;;;24.90;32.20;;;;;;5032013;28;20141;-63
2021/11/26 08:08:53;;;;;;;12.02;8.63;;;24.90;32.40;;;;;;5025593;28;20048;-64
2021/11/26 08:11:20;;;;;;;9.00;7.80;;;24.90;32.70;;;;;;5022540;28;20048;-64
2021/11/26 08:13:47;;;;;;;10.40;8.15;;;25.00;32.40;;;;;;5020981;28;20084;-63
2021/11/26 08:16:15;;;;;;;9.63;8.20;;;25.10;32.40;;;;;;5027067;28;20072;-63
2021/11/26 08:18:43;;;;;;;9.43;7.63;;;25.10;32.30;;;;;;5029041;28;20140;-64
2021/11/26 08:21:11;;;;;;;11.88;8.48;;;25.10;32.40;;;;;;5019499;28;20101;-64
2021/11/26 08:23:38;;;;;;;16.08;8.00;;;25.20;32.30;;;;;;5020967;28;20053;-62
2021/11/26 08:26:05;;;;;;;9.77;7.82;;;25.30;32.10;;;;;;5024604;28;20051;-63
2021/11/26 08:28:33;;;;;;;11.13;7.80;;;25.30;31.90;;;;;;5024883;28;20551;-64
2021/11/26 08:31:00;;;;;;;9.18;7.72;;;25.30;32.00;;;;;;5027255;28;20497;-64
2021/11/26 08:33:28;;;;;;;9.20;7.53;;;25.20;32.00;;;;;;5019890;28;20395;-62
2021/11/26 08:35:57;;;;;;;8.73;7.20;;;25.20;31.90;;;;;;5028733;28;20698;-62
2021/11/26 08:38:25;;;;;;;8.25;7.30;;;25.20;32.00;;;;;;5031004;28;20130;-63
2021/11/26 08:40:52;;;;;;;10.00;7.53;;;25.20;32.00;;;;;;5026810;28;20900;-63
2021/11/26 08:43:19;;;;;;;9.52;7.68;;;25.10;31.90;;;;;;5020236;28;20107;-61
2021/11/26 08:45:47;;;;;;;14.60;7.43;;;25.10;31.80;;;;;;5026458;28;20139;-63
2021/11/26 08:48:14;;;;;;;10.55;7.65;;;25.10;31.90;;;;;;5027761;28;20045;-62
2021/11/26 08:50:41;;;;;;;8.25;7.45;;;25.00;31.90;;;;;;5023908;28;20591;-63
2021/11/26 08:53:10;;;;;;;12.25;8.00;;;25.00;31.90;;;;;;5015164;28;20056;-63
2021/11/26 08:55:40;;;;;;;10.00;7.68;;;25.00;32.20;;;;;;5024892;28;20165;-63
2021/11/26 08:58:12;;;;;;;9.98;6.85;;;25.00;32.20;;;;;;5024443;28;20425;-62
2021/11/26 09:00:41;;;;;;;10.95;7.60;;;24.90;32.10;;;;;;5025550;28;20052;-62
2021/11/26 09:03:09;;;;;;;8.27;6.63;;;24.90;32.20;;;;;;5015050;28;20055;-62
2021/11/26 09:05:37;;;;;;;9.35;7.45;;;24.90;32.30;;;;;;5024432;28;20722;-63
2021/11/26 09:08:05;;;;;;;10.70;6.85;;;24.90;32.30;;;;;;5026043;28;20110;-62
2021/11/26 09:10:35;;;;;;;8.18;7.32;;;24.90;32.50;;;;;;5022318;28;20052;-62
2021/11/26 09:13:05;;;;;;;7.30;6.60;;;24.80;32.50;;;;;;5016790;28;21839;-62
2021/11/26 09:15:33;;;;;;;7.60;6.28;;;24.80;32.70;;;;;;5024061;28;20076;-62
2021/11/26 09:18:06;;;;;;;9.05;7.47;;;24.80;32.70;;;;;;5014897;28;20045;-63
2021/11/26 09:20:34;;;;;;;8.05;6.75;;;24.70;32.70;;;;;;5028597;28;20056;-62
2021/11/26 09:23:03;;;;;;;9.05;7.15;;;24.70;32.70;;;;;;5024811;28;20058;-62
2021/11/26 09:25:32;;;;;;;6.35;5.75;;;24.70;32.80;;;;;;5029257;28;22066;-63
2021/11/26 09:27:59;;;;;;;6.50;5.90;;;24.70;32.90;;;;;;5027277;28;20055;-62
2021/11/26 09:30:28;;;;;;;7.90;6.55;;;24.70;33.00;;;;;;5033878;28;20807;-62
2021/11/26 09:32:56;;;;;;;7.50;6.05;;;24.70;33.00;;;;;;5023049;28;20418;-63
2021/11/26 09:35:25;;;;;;;7.35;6.43;;;24.70;33.10;;;;;;5036882;28;20573;-63
2021/11/26 09:37:53;;;;;;;7.43;6.30;;;24.70;33.10;;;;;;5032339;28;20052;-62
2021/11/26 09:40:21;;;;;;;8.30;6.07;;;24.60;33.20;;;;;;5025981;28;20173;-61
2021/11/26 09:42:49;;;;;;;8.77;6.20;;;24.60;33.50;;;;;;5024417;28;20152;-66
2021/11/26 09:45:22;;;;;;;7.28;6.50;;;24.70;33.90;;;;;;5034652;28;20051;-65
2021/11/26 09:47:51;;;;;;;8.23;6.80;;;24.60;34.00;;;;;;5030688;28;20080;-65
2021/11/26 09:50:21;;;;;;;6.65;5.95;;;24.60;34.00;;;;;;5033092;28;20049;-64
2021/11/26 09:52:48;;;;;;;8.13;5.57;;;24.60;34.20;;;;;;5028739;28;20052;-65
2021/11/26 09:55:17;;;;;;;51.45;9.20;;;24.60;34.30;;;;;;5031900;28;20048;-64
2021/11/26 09:57:46;;;;;;;23.10;7.88;;;24.60;34.30;;;;;;5034468;28;20052;-64
2021/11/26 10:00:17;;;;;;;27.20;7.20;;;24.60;34.40;;;;;;5031161;28;20045;-63
2021/11/26 10:02:56;;;;;;;14.93;5.95;;;24.60;34.40;;;;;;5022006;28;20106;-65
2021/11/26 10:05:25;;;;;;;13.70;5.23;;;24.60;34.40;;;;;;5030708;28;20052;-65
2021/11/26 10:07:54;;;;;;;12.07;5.43;;;24.60;34.40;;;;;;5029920;28;20049;-61
2021/11/26 10:10:25;;;;;;;8.60;5.68;;;24.60;34.50;;;;;;5032560;28;20052;-64
2021/11/26 10:13:02;;;;;;;13.70;5.93;;;24.60;34.30;;;;;;5026958;28;20453;-64
2021/11/26 10:15:42;;;;;;;8.03;5.30;;;24.60;34.30;;;;;;5026327;28;20131;-65
2021/11/26 10:18:16;;;;;;;9.32;5.78;;;24.60;34.40;;;;;;5032931;28;20600;-64
2021/11/26 10:21:07;;;;;;;11.65;5.70;;;24.70;34.50;;;;;;5029194;28;20134;-66
2021/11/26 10:23:37;;;;;;;5.72;5.13;;;24.70;34.50;;;;;;5025526;28;20080;-64
2021/11/26 10:26:27;;;;;;;6.07;5.32;;;24.70;34.40;;;;;;5029504;28;20114;-66
2021/11/26 10:29:00;;;;;;;6.75;5.15;;;24.70;34.30;;;;;;5029952;28;20413;-63
2021/11/26 10:31:33;;;;;;;7.75;4.90;;;24.70;34.30;;;;;;5026238;28;20414;-64
2021/11/26 10:34:17;;;;;;;9.10;4.80;;;24.70;34.20;;;;;;5022607;28;20135;-64
2021/11/26 10:36:47;;;;;;;10.70;4.75;;;24.80;34.30;;;;;;5026969;28;20049;-63
2021/11/26 10:39:17;;;;;;;10.10;4.15;;;24.80;34.30;;;;;;5033587;28;20053;-63
2021/11/26 10:41:58;;;;;;;;;;;24.80;34.30;;;;;;5023912;28;20052;-63
2021/11/26 10:44:44;;;;;;;5.65;4.75;;;24.80;34.20;;;;;;5027284;28;19921;-63
2021/11/26 10:47:21;;;;;;;9.98;4.70;;;24.70;34.00;;;;;;5032665;28;20057;-64
2021/11/26 10:56:40;;;;;;;5.65;4.20;;;24.70;33.90;;;;;;5022630;28;20050;-64
2021/11/26 10:58:19;;;;;;;6.82;4.43;;;24.70;33.90;;;;;;5025253;28;20052;-62
2021/11/26 11:00:47;;;;;;;4.85;4.35;;;24.70;33.90;;;;;;5028360;28;20052;-60
2021/11/26 11:03:23;;;;;;;7.72;4.18;;;24.70;33.80;;;;;;5029619;28;20132;-63
2021/11/26 11:05:50;;;;;;;11.52;4.72;;;24.70;33.80;;;;;;5030349;28;20078;-64
2021/11/26 11:08:22;;;;;;;5.93;4.40;;;24.70;33.90;;;;;;5026187;28;20052;-64
2021/11/26 11:10:51;;;;;;;5.03;4.53;;;24.60;33.90;;;;;;5033976;28;20103;-62
2021/11/26 11:13:24;;;;;;;5.55;4.50;;;24.70;33.90;;;;;;5030059;28;20056;-62
2021/11/26 11:15:51;;;;;;;5.15;4.63;;;24.70;33.90;;;;;;5049212;28;20092;-62
2021/11/26 11:18:19;;;;;;;6.35;4.63;;;24.60;33.80;;;;;;5027308;28;20080;-62
2021/11/26 11:20:46;;;;;;;4.65;4.10;;;24.60;33.80;;;;;;5028003;28;20544;-62
2021/11/26 11:23:17;;;;;;;5.18;3.92;;;24.60;33.70;;;;;;5029373;28;20049;-62
2021/11/26 11:25:44;;;;;;;4.95;4.50;;;24.50;33.70;;;;;;5027049;28;20049;-62
2021/11/26 11:28:15;;;;;;;4.60;3.97;;;24.50;33.60;;;;;;5032786;28;20504;-62
2021/11/26 11:30:43;;;;;;;5.97;4.50;;;24.50;33.60;;;;;;5027355;28;20111;-63
2021/11/26 11:33:12;;;;;;;5.78;5.05;;;24.50;33.60;;;;;;5024792;28;20571;-62
2021/11/26 11:35:41;;;;;;;5.13;4.50;;;24.40;33.60;;;;;;5028241;28;20521;-63
2021/11/26 11:38:10;;;;;;;5.35;4.05;;;24.40;33.60;;;;;;5029845;28;20049;-64
2021/11/26 11:40:46;;;;;;;4.65;4.25;;;24.50;33.90;;;;;;5028991;28;20048;-63
2021/11/26 11:43:22;;;;;;;4.88;4.00;;;24.40;34.20;;;;;;5021398;28;20434;-64
2021/11/26 11:45:57;;;;;;;4.30;3.50;;;24.40;34.30;;;;;;5027002;28;20465;-64
2021/11/26 11:48:31;;;;;;;4.78;4.20;;;24.40;34.40;;;;;;5031859;28;20435;-64
2021/11/26 11:50:58;;;;;;;4.97;4.15;;;24.40;34.40;;;;;;5025149;28;20049;-64
2021/11/26 11:53:32;;;;;;;6.32;4.72;;;24.50;34.50;;;;;;5021277;28;20052;-62
2021/11/26 11:56:12;;;;;;;4.50;4.03;;;24.40;34.50;;;;;;5028259;28;20051;-63
2021/11/26 11:58:48;;;;;;;7.45;4.20;;;24.40;34.50;;;;;;5026488;28;20732;-62
2021/11/26 12:01:21;;;;;;;4.55;3.50;;;24.50;34.70;;;;;;5024504;28;20134;-62
2021/11/26 12:03:51;;;;;;;4.85;4.35;;;24.50;34.60;;;;;;5029064;28;20048;-63
2021/11/26 12:06:19;;;;;;;7.05;3.45;;;24.40;34.70;;;;;;5025842;28;20049;-63
2021/11/26 12:08:52;;;;;;;4.63;3.58;;;24.40;34.70;;;;;;5030825;28;20057;-62
2021/11/26 12:11:37;;;;;;;5.75;3.83;;;24.40;34.60;;;;;;5025915;28;20045;-62
2021/11/26 12:14:10;;;;;;;4.38;3.60;;;24.40;34.60;;;;;;5026993;28;20053;-61
2021/11/26 12:17:12;;;;;;;4.32;3.90;;;24.50;34.70;;;;;;5023602;28;20041;-61
2021/11/26 12:19:39;;;;;;;5.25;3.83;;;24.50;34.60;;;;;;5028997;28;20072;-61
2021/11/26 12:22:13;;;;;;;4.20;3.90;;;24.50;34.70;;;;;;5016747;28;20460;-61
2021/11/26 12:24:45;;;;;;;4.82;4.32;;;24.50;34.70;;;;;;5023084;28;20469;-60
2021/11/26 12:27:21;;;;;;;7.10;4.18;;;24.50;34.60;;;;;;5024924;28;20044;-61
2021/11/26 12:29:51;;;;;;;4.90;4.20;;;24.50;34.60;;;;;;5024578;28;20088;-59
2021/11/26 12:32:29;;;;;;;5.27;3.80;;;24.60;34.60;;;;;;5019157;28;20583;-60
2021/11/26 12:35:02;;;;;;;3.97;3.58;;;24.50;34.50;;;;;;5027117;28;20305;-61
2021/11/26 12:37:33;;;;;;;5.22;4.05;;;24.60;34.50;;;;;;5020117;28;20072;-60
2021/11/26 12:40:04;;;;;;;8.02;3.80;;;24.50;34.50;;;;;;5027711;28;20045;-62
2021/11/26 12:42:32;;;;;;;3.95;3.65;;;24.50;34.60;;;;;;5021281;28;20048;-60
2021/11/26 12:45:12;;;;;;;4.47;4.07;;;24.60;34.80;;;;;;5024705;28;20526;-61
2021/11/26 12:48:08;;;;;;;4.88;3.95;;;24.60;34.70;;;;;;5026077;28;20506;-60
2021/11/26 12:53:26;;;;;;;6.15;3.95;;;24.60;34.60;;;;;;5022755;28;20059;-62
2021/11/26 12:56:04;;;;;;;4.80;4.30;;;24.60;34.60;;;;;;5025139;28;21160;-62